sensor_id;sensor_type;location;lat;lon;timestamp;P1;durP1;ratioP1;P2;durP2;ratioP2
14892;SDS011;7538;53.626;9.906;2022-09-30T04:09:00;23.17;;;19.88;;
14892;SDS011;7538;53.626;9.906;2022-09-30T04:11:28;23.45;;;19.38;;
14892;SDS011;7538;53.626;9.906;2022-09-30T04:13:55;20.70;;;18.00;;
14892;SDS011;7538;53.626;9.906;2022-09-30T04:16:22;22.25;;;19.73;;
14892;SDS011;7538;53.626;9.906;2022-09-30T04:18:49;22.33;;;19.63;;
14892;SDS011;7538;53.626;9.906;2022-09-30T04:21:16;22.73;;;19.42;;
14892;SDS011;7538;53.626;9.906;2022-09-30T04:23:43;22.90;;;20.23;;
14892;SDS011;7538;53.626;9.906;2022-09-30T04:26:12;22.02;;;19.52;;
14892;SDS011;7538;53.626;9.906;2022-09-30T04:28:40;21.73;;;19.40;;
14892;SDS011;7538;53.626;9.906;2022-09-30T04:31:08;20.08;;;17.33;;
14892;SDS011;7538;53.626;9.906;2022-09-30T04:33:36;19.60;;;17.55;;
14892;SDS011;7538;53.626;9.906;2022-09-30T04:36:04;21.95;;;17.63;;
14892;SDS011;7538;53.626;9.906;2022-09-30T04:38:32;21.15;;;18.55;;
14892;SDS011;7538;53.626;9.906;2022-09-30T04:41:00;19.58;;;17.30;;
14892;SDS011;7538;53.626;9.906;2022-09-30T04:43:30;22.08;;;18.77;;
14892;SDS011;7538;53.626;9.906;2022-09-30T04:45:58;20.88;;;17.90;;
14892;SDS011;7538;53.626;9.906;2022-09-30T04:48:25;20.25;;;17.63;;
14892;SDS011;7538;53.626;9.906;2022-09-30T04:50:56;19.88;;;17.42;;
14892;SDS011;7538;53.626;9.906;2022-09-30T04:53:23;20.63;;;16.90;;
14892;SDS011;7538;53.626;9.906;2022-09-30T04:55:56;17.35;;;15.48;;
14892;SDS011;7538;53.626;9.906;2022-09-30T04:58:23;22.48;;;17.85;;
14892;SDS011;7538;53.626;9.906;2022-09-30T05:00:52;18.63;;;16.30;;
14892;SDS011;7538;53.626;9.906;2022-09-30T05:03:25;20.13;;;18.00;;
14892;SDS011;7538;53.626;9.906;2022-09-30T05:05:52;17.52;;;15.73;;
14892;SDS011;7538;53.626;9.906;2022-09-30T05:08:19;19.25;;;16.85;;
14892;SDS011;7538;53.626;9.906;2022-09-30T05:10:52;19.25;;;17.10;;
14892;SDS011;7538;53.626;9.906;2022-09-30T05:13:21;17.40;;;15.60;;
14892;SDS011;7538;53.626;9.906;2022-09-30T05:15:48;19.27;;;16.98;;
14892;SDS011;7538;53.626;9.906;2022-09-30T05:18:17;21.48;;;17.35;;
14892;SDS011;7538;53.626;9.906;2022-09-30T05:20:44;19.02;;;16.55;;
14892;SDS011;7538;53.626;9.906;2022-09-30T05:23:11;19.58;;;17.58;;
14892;SDS011;7538;53.626;9.906;2022-09-30T05:25:38;16.92;;;15.23;;
14892;SDS011;7538;53.626;9.906;2022-09-30T05:28:05;19.73;;;17.50;;
14892;SDS011;7538;53.626;9.906;2022-09-30T05:30:32;19.75;;;17.63;;
14892;SDS011;7538;53.626;9.906;2022-09-30T05:32:59;18.05;;;16.25;;
14892;SDS011;7538;53.626;9.906;2022-09-30T05:35:28;19.65;;;17.65;;
14892;SDS011;7538;53.626;9.906;2022-09-30T05:37:55;18.55;;;16.65;;
14892;SDS011;7538;53.626;9.906;2022-09-30T05:40:22;19.70;;;17.60;;
14892;SDS011;7538;53.626;9.906;2022-09-30T05:42:50;20.42;;;18.23;;
14892;SDS011;7538;53.626;9.906;2022-09-30T05:45:17;20.10;;;17.98;;
14892;SDS011;7538;53.626;9.906;2022-09-30T05:47:49;20.58;;;18.02;;
14892;SDS011;7538;53.626;9.906;2022-09-30T05:50:16;22.20;;;18.75;;
14892;SDS011;7538;53.626;9.906;2022-09-30T05:52:46;19.52;;;17.35;;
14892;SDS011;7538;53.626;9.906;2022-09-30T05:55:13;18.65;;;16.60;;
14892;SDS011;7538;53.626;9.906;2022-09-30T05:57:40;20.10;;;18.05;;
14892;SDS011;7538;53.626;9.906;2022-09-30T06:00:10;20.15;;;16.75;;
14892;SDS011;7538;53.626;9.906;2022-09-30T06:02:37;19.48;;;17.58;;
14892;SDS011;7538;53.626;9.906;2022-09-30T06:05:05;19.08;;;17.02;;
14892;SDS011;7538;53.626;9.906;2022-09-30T06:07:33;19.27;;;17.23;;
14892;SDS011;7538;53.626;9.906;2022-09-30T06:10:03;20.65;;;18.40;;
14892;SDS011;7538;53.626;9.906;2022-09-30T06:12:31;19.93;;;17.83;;
14892;SDS011;7538;53.626;9.906;2022-09-30T06:15:00;19.17;;;16.75;;
14892;SDS011;7538;53.626;9.906;2022-09-30T06:17:27;18.33;;;16.33;;
14892;SDS011;7538;53.626;9.906;2022-09-30T06:19:54;19.20;;;17.23;;
14892;SDS011;7538;53.626;9.906;2022-09-30T06:22:21;19.75;;;17.55;;
14892;SDS011;7538;53.626;9.906;2022-09-30T06:24:49;21.05;;;17.45;;
14892;SDS011;7538;53.626;9.906;2022-09-30T06:27:18;19.63;;;17.60;;
14892;SDS011;7538;53.626;9.906;2022-09-30T06:29:46;19.80;;;17.63;;
14892;SDS011;7538;53.626;9.906;2022-09-30T06:32:13;19.15;;;16.85;;
14892;SDS011;7538;53.626;9.906;2022-09-30T06:34:41;17.80;;;16.05;;
14892;SDS011;7538;53.626;9.906;2022-09-30T06:37:08;18.80;;;16.80;;
14892;SDS011;7538;53.626;9.906;2022-09-30T06:39:37;16.98;;;15.35;;
14892;SDS011;7538;53.626;9.906;2022-09-30T06:42:05;16.27;;;14.70;;
14892;SDS011;7538;53.626;9.906;2022-09-30T06:44:34;18.20;;;15.07;;
14892;SDS011;7538;53.626;9.906;2022-09-30T06:47:01;16.20;;;14.60;;
14892;SDS011;7538;53.626;9.906;2022-09-30T06:49:28;17.30;;;15.25;;
14892;SDS011;7538;53.626;9.906;2022-09-30T06:51:55;15.77;;;14.07;;
14892;SDS011;7538;53.626;9.906;2022-09-30T06:54:24;18.10;;;16.30;;
14892;SDS011;7538;53.626;9.906;2022-09-30T06:56:52;18.27;;;14.75;;
14892;SDS011;7538;53.626;9.906;2022-09-30T06:59:21;16.42;;;14.73;;
14892;SDS011;7538;53.626;9.906;2022-09-30T07:01:50;15.38;;;13.88;;
14892;SDS011;7538;53.626;9.906;2022-09-30T07:04:17;13.30;;;11.98;;
14892;SDS011;7538;53.626;9.906;2022-09-30T07:06:44;15.13;;;13.55;;
14892;SDS011;7538;53.626;9.906;2022-09-30T07:09:11;14.45;;;12.90;;
14892;SDS011;7538;53.626;9.906;2022-09-30T07:11:38;15.20;;;13.68;;
14892;SDS011;7538;53.626;9.906;2022-09-30T07:14:05;13.45;;;12.15;;
14892;SDS011;7538;53.626;9.906;2022-09-30T07:16:34;13.07;;;11.88;;
14892;SDS011;7538;53.626;9.906;2022-09-30T07:19:03;12.38;;;11.18;;
14892;SDS011;7538;53.626;9.906;2022-09-30T07:21:31;11.07;;;9.98;;
14892;SDS011;7538;53.626;9.906;2022-09-30T07:23:58;9.32;;;8.50;;
14892;SDS011;7538;53.626;9.906;2022-09-30T07:26:25;7.75;;;7.13;;
14892;SDS011;7538;53.626;9.906;2022-09-30T07:28:53;7.60;;;6.90;;
14892;SDS011;7538;53.626;9.906;2022-09-30T07:31:20;8.18;;;7.47;;
14892;SDS011;7538;53.626;9.906;2022-09-30T07:33:49;6.90;;;6.18;;
14892;SDS011;7538;53.626;9.906;2022-09-30T07:36:18;6.20;;;5.70;;
14892;SDS011;7538;53.626;9.906;2022-09-30T07:38:51;6.30;;;5.70;;
14892;SDS011;7538;53.626;9.906;2022-09-30T07:41:19;7.07;;;6.22;;
14892;SDS011;7538;53.626;9.906;2022-09-30T07:43:49;6.47;;;5.88;;
14892;SDS011;7538;53.626;9.906;2022-09-30T07:46:17;7.40;;;6.72;;
14892;SDS011;7538;53.626;9.906;2022-09-30T07:48:48;6.15;;;5.35;;
14892;SDS011;7538;53.626;9.906;2022-09-30T07:51:18;6.70;;;5.78;;
14892;SDS011;7538;53.626;9.906;2022-09-30T07:53:47;6.32;;;5.72;;
14892;SDS011;7538;53.626;9.906;2022-09-30T07:56:16;6.25;;;5.55;;
14892;SDS011;7538;53.626;9.906;2022-09-30T07:58:44;8.00;;;7.20;;
14892;SDS011;7538;53.626;9.906;2022-09-30T08:01:11;7.03;;;6.38;;
14892;SDS011;7538;53.626;9.906;2022-09-30T08:03:38;7.15;;;6.55;;
14892;SDS011;7538;53.626;9.906;2022-09-30T08:06:09;5.63;;;5.13;;
14892;SDS011;7538;53.626;9.906;2022-09-30T08:08:38;5.93;;;5.43;;
14892;SDS011;7538;53.626;9.906;2022-09-30T08:11:05;5.40;;;4.90;;
14892;SDS011;7538;53.626;9.906;2022-09-30T08:13:32;5.43;;;4.93;;
14892;SDS011;7538;53.626;9.906;2022-09-30T08:15:59;6.50;;;5.90;;
14892;SDS011;7538;53.626;9.906;2022-09-30T08:18:27;6.13;;;5.53;;
14892;SDS011;7538;53.626;9.906;2022-09-30T08:20:54;5.57;;;4.70;;
14892;SDS011;7538;53.626;9.906;2022-09-30T08:23:21;5.03;;;4.63;;
14892;SDS011;7538;53.626;9.906;2022-09-30T08:25:50;5.28;;;4.88;;
14892;SDS011;7538;53.626;9.906;2022-09-30T08:28:16;5.45;;;4.93;;
14892;SDS011;7538;53.626;9.906;2022-09-30T08:30:43;6.95;;;5.82;;
14892;SDS011;7538;53.626;9.906;2022-09-30T08:33:10;4.78;;;4.40;;
14892;SDS011;7538;53.626;9.906;2022-09-30T08:35:37;11.32;;;7.88;;
14892;SDS011;7538;53.626;9.906;2022-09-30T08:38:04;101.13;;;53.13;;
14892;SDS011;7538;53.626;9.906;2022-09-30T08:40:31;22.33;;;13.63;;
14892;SDS011;7538;53.626;9.906;2022-09-30T08:43:07;42.63;;;21.63;;
14892;SDS011;7538;53.626;9.906;2022-09-30T08:46:03;6.15;;;5.57;;
14892;SDS011;7538;53.626;9.906;2022-09-30T08:48:43;6.13;;;5.53;;
14892;SDS011;7538;53.626;9.906;2022-09-30T08:51:21;5.07;;;4.18;;
14892;SDS011;7538;53.626;9.906;2022-09-30T08:53:55;3.95;;;3.60;;
14892;SDS011;7538;53.626;9.906;2022-09-30T08:56:25;4.00;;;3.70;;
14892;SDS011;7538;53.626;9.906;2022-09-30T08:58:55;4.88;;;4.38;;
14892;SDS011;7538;53.626;9.906;2022-09-30T09:01:27;4.22;;;3.83;;
14892;SDS011;7538;53.626;9.906;2022-09-30T09:03:57;5.10;;;4.60;;
14892;SDS011;7538;53.626;9.906;2022-09-30T09:06:27;4.28;;;3.88;;
14892;SDS011;7538;53.626;9.906;2022-09-30T09:09:01;4.63;;;3.83;;
14892;SDS011;7538;53.626;9.906;2022-09-30T09:11:47;3.90;;;3.50;;
14892;SDS011;7538;53.626;9.906;2022-09-30T09:14:31;4.05;;;3.70;;
14892;SDS011;7538;53.626;9.906;2022-09-30T09:17:10;3.80;;;3.40;;
14892;SDS011;7538;53.626;9.906;2022-09-30T09:19:46;4.50;;;4.10;;
14892;SDS011;7538;53.626;9.906;2022-09-30T09:22:21;4.05;;;3.75;;
14892;SDS011;7538;53.626;9.906;2022-09-30T09:24:49;5.78;;;4.30;;
14892;SDS011;7538;53.626;9.906;2022-09-30T09:27:18;4.28;;;3.85;;
14892;SDS011;7538;53.626;9.906;2022-09-30T09:29:51;4.15;;;3.65;;
14892;SDS011;7538;53.626;9.906;2022-09-30T09:32:25;4.00;;;3.55;;
14892;SDS011;7538;53.626;9.906;2022-09-30T09:34:54;4.63;;;3.97;;
14892;SDS011;7538;53.626;9.906;2022-09-30T09:37:27;5.22;;;4.00;;
14892;SDS011;7538;53.626;9.906;2022-09-30T09:40:21;3.97;;;3.58;;
14892;SDS011;7538;53.626;9.906;2022-09-30T09:42:57;3.90;;;3.53;;
14892;SDS011;7538;53.626;9.906;2022-09-30T09:45:33;4.97;;;3.65;;
14892;SDS011;7538;53.626;9.906;2022-09-30T09:48:06;4.60;;;3.90;;
14892;SDS011;7538;53.626;9.906;2022-09-30T09:50:38;4.43;;;3.97;;
14892;SDS011;7538;53.626;9.906;2022-09-30T09:53:21;5.63;;;3.80;;
14892;SDS011;7538;53.626;9.906;2022-09-30T09:56:07;5.97;;;4.05;;
14892;SDS011;7538;53.626;9.906;2022-09-30T10:01:40;5.63;;;4.65;;
14892;SDS011;7538;53.626;9.906;2022-09-30T10:04:12;5.07;;;4.30;;
14892;SDS011;7538;53.626;9.906;2022-09-30T10:06:46;4.60;;;4.15;;
14892;SDS011;7538;53.626;9.906;2022-09-30T10:12:16;6.55;;;4.30;;
14892;SDS011;7538;53.626;9.906;2022-09-30T10:14:54;4.20;;;3.80;;
14892;SDS011;7538;53.626;9.906;2022-09-30T10:17:28;4.32;;;3.90;;
14892;SDS011;7538;53.626;9.906;2022-09-30T10:19:57;4.32;;;3.92;;
14892;SDS011;7538;53.626;9.906;2022-09-30T10:22:32;4.28;;;3.88;;
14892;SDS011;7538;53.626;9.906;2022-09-30T10:25:16;4.47;;;3.40;;
14892;SDS011;7538;53.626;9.906;2022-09-30T10:27:46;4.43;;;3.30;;
14892;SDS011;7538;53.626;9.906;2022-09-30T10:30:31;4.55;;;3.65;;
14892;SDS011;7538;53.626;9.906;2022-09-30T10:33:11;4.03;;;3.65;;
14892;SDS011;7538;53.626;9.906;2022-09-30T10:35:48;3.63;;;3.30;;
14892;SDS011;7538;53.626;9.906;2022-09-30T10:38:18;5.00;;;3.25;;
14892;SDS011;7538;53.626;9.906;2022-09-30T10:40:46;4.07;;;3.63;;
14892;SDS011;7538;53.626;9.906;2022-09-30T10:43:20;4.22;;;3.80;;
14892;SDS011;7538;53.626;9.906;2022-09-30T10:45:51;3.72;;;3.38;;
14892;SDS011;7538;53.626;9.906;2022-09-30T10:48:21;3.80;;;2.95;;
14892;SDS011;7538;53.626;9.906;2022-09-30T10:50:50;3.70;;;3.40;;
14892;SDS011;7538;53.626;9.906;2022-09-30T10:53:20;5.25;;;3.75;;
14892;SDS011;7538;53.626;9.906;2022-09-30T10:55:49;4.93;;;3.90;;
14892;SDS011;7538;53.626;9.906;2022-09-30T10:58:28;3.42;;;3.05;;
14892;SDS011;7538;53.626;9.906;2022-09-30T11:01:06;6.35;;;4.10;;
14892;SDS011;7538;53.626;9.906;2022-09-30T11:03:47;3.58;;;3.25;;
14892;SDS011;7538;53.626;9.906;2022-09-30T11:06:20;4.05;;;3.30;;
14892;SDS011;7538;53.626;9.906;2022-09-30T11:08:50;3.55;;;3.25;;
14892;SDS011;7538;53.626;9.906;2022-09-30T11:11:23;4.32;;;3.55;;
14892;SDS011;7538;53.626;9.906;2022-09-30T11:13:53;3.22;;;2.92;;
14892;SDS011;7538;53.626;9.906;2022-09-30T11:16:23;2.88;;;2.58;;
14892;SDS011;7538;53.626;9.906;2022-09-30T11:18:59;5.40;;;3.30;;
14892;SDS011;7538;53.626;9.906;2022-09-30T11:21:32;5.00;;;3.60;;
14892;SDS011;7538;53.626;9.906;2022-09-30T11:24:02;5.28;;;3.70;;
14892;SDS011;7538;53.626;9.906;2022-09-30T11:26:42;3.20;;;2.53;;
14892;SDS011;7538;53.626;9.906;2022-09-30T11:29:33;2.63;;;2.42;;
14892;SDS011;7538;53.626;9.906;2022-09-30T11:32:08;4.53;;;2.15;;
14892;SDS011;7538;53.626;9.906;2022-09-30T11:34:47;2.58;;;2.38;;
14892;SDS011;7538;53.626;9.906;2022-09-30T11:37:23;2.90;;;2.60;;
14892;SDS011;7538;53.626;9.906;2022-09-30T11:42:51;5.10;;;3.15;;
14892;SDS011;7538;53.626;9.906;2022-09-30T11:45:25;2.83;;;2.20;;
14892;SDS011;7538;53.626;9.906;2022-09-30T11:48:05;2.92;;;2.08;;
14892;SDS011;7538;53.626;9.906;2022-09-30T11:50:47;3.40;;;2.50;;
14892;SDS011;7538;53.626;9.906;2022-09-30T11:53:22;3.97;;;3.00;;
14892;SDS011;7538;53.626;9.906;2022-09-30T11:56:00;2.90;;;2.53;;
14892;SDS011;7538;53.626;9.906;2022-09-30T11:58:46;3.78;;;2.58;;
14892;SDS011;7538;53.626;9.906;2022-09-30T12:01:17;3.03;;;2.55;;
14892;SDS011;7538;53.626;9.906;2022-09-30T12:03:50;4.50;;;2.10;;
14892;SDS011;7538;53.626;9.906;2022-09-30T12:06:25;3.25;;;2.00;;
14892;SDS011;7538;53.626;9.906;2022-09-30T12:08:58;2.38;;;2.17;;
14892;SDS011;7538;53.626;9.906;2022-09-30T12:11:49;2.63;;;2.40;;
14892;SDS011;7538;53.626;9.906;2022-09-30T12:14:23;3.58;;;2.60;;
14892;SDS011;7538;53.626;9.906;2022-09-30T12:16:54;4.03;;;2.38;;
14892;SDS011;7538;53.626;9.906;2022-09-30T12:19:24;2.67;;;2.47;;
14892;SDS011;7538;53.626;9.906;2022-09-30T12:21:57;2.92;;;2.63;;
14892;SDS011;7538;53.626;9.906;2022-09-30T12:24:31;3.42;;;2.70;;
14892;SDS011;7538;53.626;9.906;2022-09-30T12:26:59;3.65;;;3.35;;
14892;SDS011;7538;53.626;9.906;2022-09-30T12:29:27;4.68;;;3.70;;
14892;SDS011;7538;53.626;9.906;2022-09-30T12:32:22;3.88;;;3.47;;
14892;SDS011;7538;53.626;9.906;2022-09-30T12:35:25;4.20;;;3.80;;
14892;SDS011;7538;53.626;9.906;2022-09-30T12:38:08;4.55;;;4.10;;
14892;SDS011;7538;53.626;9.906;2022-09-30T12:40:52;4.00;;;3.60;;
14892;SDS011;7538;53.626;9.906;2022-09-30T12:43:45;4.15;;;3.83;;
14892;SDS011;7538;53.626;9.906;2022-09-30T12:46:41;3.95;;;3.65;;
14892;SDS011;7538;53.626;9.906;2022-09-30T12:49:16;4.78;;;4.25;;
14892;SDS011;7538;53.626;9.906;2022-09-30T12:51:48;5.30;;;4.80;;
14892;SDS011;7538;53.626;9.906;2022-09-30T12:54:20;6.40;;;5.22;;
14892;SDS011;7538;53.626;9.906;2022-09-30T12:56:52;5.68;;;4.88;;
14892;SDS011;7538;53.626;9.906;2022-09-30T12:59:23;5.63;;;4.72;;
14892;SDS011;7538;53.626;9.906;2022-09-30T13:01:51;6.40;;;5.07;;
14892;SDS011;7538;53.626;9.906;2022-09-30T13:07:10;5.15;;;4.65;;
14892;SDS011;7538;53.626;9.906;2022-09-30T13:09:57;7.45;;;5.15;;
14892;SDS011;7538;53.626;9.906;2022-09-30T13:12:43;5.25;;;4.30;;
14892;SDS011;7538;53.626;9.906;2022-09-30T13:15:21;5.60;;;4.88;;
14892;SDS011;7538;53.626;9.906;2022-09-30T13:23:58;4.65;;;4.25;;
14892;SDS011;7538;53.626;9.906;2022-09-30T13:34:57;4.25;;;3.85;;
14892;SDS011;7538;53.626;9.906;2022-09-30T13:37:30;3.17;;;2.88;;
14892;SDS011;7538;53.626;9.906;2022-09-30T13:39:59;4.00;;;3.70;;
14892;SDS011;7538;53.626;9.906;2022-09-30T13:42:30;4.72;;;3.47;;
14892;SDS011;7538;53.626;9.906;2022-09-30T13:45:05;4.10;;;3.70;;
14892;SDS011;7538;53.626;9.906;2022-09-30T13:47:34;6.82;;;4.38;;
14892;SDS011;7538;53.626;9.906;2022-09-30T13:50:05;5.38;;;4.45;;
14892;SDS011;7538;53.626;9.906;2022-09-30T13:52:38;6.57;;;4.00;;
14892;SDS011;7538;53.626;9.906;2022-09-30T13:55:06;6.45;;;5.20;;
14892;SDS011;7538;53.626;9.906;2022-09-30T13:57:41;4.22;;;3.83;;
14892;SDS011;7538;53.626;9.906;2022-09-30T14:00:16;5.15;;;4.65;;
14892;SDS011;7538;53.626;9.906;2022-09-30T14:02:47;7.13;;;4.95;;
14892;SDS011;7538;53.626;9.906;2022-09-30T14:05:36;5.85;;;4.40;;
14892;SDS011;7538;53.626;9.906;2022-09-30T14:08:22;5.25;;;4.00;;
14892;SDS011;7538;53.626;9.906;2022-09-30T14:11:07;6.10;;;4.57;;
14892;SDS011;7538;53.626;9.906;2022-09-30T14:13:45;6.32;;;5.70;;
14892;SDS011;7538;53.626;9.906;2022-09-30T14:16:34;6.88;;;5.53;;
14892;SDS011;7538;53.626;9.906;2022-09-30T14:19:21;5.85;;;5.35;;
14892;SDS011;7538;53.626;9.906;2022-09-30T14:22:06;5.28;;;4.80;;
14892;SDS011;7538;53.626;9.906;2022-09-30T14:24:34;7.22;;;5.80;;
14892;SDS011;7538;53.626;9.906;2022-09-30T14:27:10;7.22;;;5.35;;
14892;SDS011;7538;53.626;9.906;2022-09-30T14:29:57;6.15;;;5.55;;
14892;SDS011;7538;53.626;9.906;2022-09-30T14:32:26;6.82;;;6.10;;
14892;SDS011;7538;53.626;9.906;2022-09-30T14:34:55;6.90;;;6.15;;
14892;SDS011;7538;53.626;9.906;2022-09-30T14:37:25;6.93;;;6.22;;
14892;SDS011;7538;53.626;9.906;2022-09-30T14:39:53;6.63;;;6.03;;
14892;SDS011;7538;53.626;9.906;2022-09-30T14:42:22;6.43;;;5.82;;
14892;SDS011;7538;53.626;9.906;2022-09-30T14:44:53;6.18;;;5.15;;
14892;SDS011;7538;53.626;9.906;2022-09-30T14:47:27;7.40;;;5.50;;
14892;SDS011;7538;53.626;9.906;2022-09-30T14:49:56;6.82;;;5.70;;
14892;SDS011;7538;53.626;9.906;2022-09-30T14:52:36;7.13;;;6.10;;
14892;SDS011;7538;53.626;9.906;2022-09-30T14:55:16;6.28;;;5.60;;
14892;SDS011;7538;53.626;9.906;2022-09-30T14:57:47;8.02;;;5.53;;
14892;SDS011;7538;53.626;9.906;2022-09-30T15:00:19;6.28;;;5.78;;
14892;SDS011;7538;53.626;9.906;2022-09-30T15:02:51;7.82;;;6.47;;
14892;SDS011;7538;53.626;9.906;2022-09-30T15:05:18;6.85;;;6.15;;
14892;SDS011;7538;53.626;9.906;2022-09-30T15:07:45;8.05;;;6.10;;
14892;SDS011;7538;53.626;9.906;2022-09-30T15:10:15;6.75;;;6.05;;
14892;SDS011;7538;53.626;9.906;2022-09-30T15:12:44;7.43;;;5.88;;
14892;SDS011;7538;53.626;9.906;2022-09-30T15:15:23;7.72;;;6.28;;
14892;SDS011;7538;53.626;9.906;2022-09-30T15:18:07;7.97;;;6.65;;
14892;SDS011;7538;53.626;9.906;2022-09-30T15:21:06;7.80;;;6.97;;
14892;SDS011;7538;53.626;9.906;2022-09-30T15:23:36;6.40;;;5.80;;
14892;SDS011;7538;53.626;9.906;2022-09-30T15:26:05;7.65;;;6.70;;
14892;SDS011;7538;53.626;9.906;2022-09-30T15:28:32;7.18;;;6.47;;
14892;SDS011;7538;53.626;9.906;2022-09-30T15:31:00;7.72;;;6.40;;
14892;SDS011;7538;53.626;9.906;2022-09-30T15:33:30;6.82;;;6.13;;
14892;SDS011;7538;53.626;9.906;2022-09-30T15:36:01;7.35;;;6.57;;
14892;SDS011;7538;53.626;9.906;2022-09-30T15:38:33;7.57;;;6.00;;
14892;SDS011;7538;53.626;9.906;2022-09-30T15:41:03;7.80;;;6.32;;
14892;SDS011;7538;53.626;9.906;2022-09-30T15:43:33;6.45;;;5.15;;
14892;SDS011;7538;53.626;9.906;2022-09-30T15:46:20;6.40;;;5.72;;
14892;SDS011;7538;53.626;9.906;2022-09-30T15:48:54;8.52;;;5.60;;
14892;SDS011;7538;53.626;9.906;2022-09-30T15:51:26;5.05;;;4.57;;
14892;SDS011;7538;53.626;9.906;2022-09-30T15:53:56;7.30;;;5.68;;
14892;SDS011;7538;53.626;9.906;2022-09-30T15:56:27;5.97;;;5.43;;
14892;SDS011;7538;53.626;9.906;2022-09-30T15:58:58;6.80;;;5.95;;
14892;SDS011;7538;53.626;9.906;2022-09-30T16:01:31;7.32;;;5.95;;
14892;SDS011;7538;53.626;9.906;2022-09-30T16:04:05;6.40;;;5.80;;
14892;SDS011;7538;53.626;9.906;2022-09-30T16:06:36;6.90;;;6.20;;
14892;SDS011;7538;53.626;9.906;2022-09-30T16:09:19;7.78;;;5.80;;
14892;SDS011;7538;53.626;9.906;2022-09-30T16:11:55;6.13;;;5.50;;
14892;SDS011;7538;53.626;9.906;2022-09-30T16:14:27;5.82;;;5.10;;
14892;SDS011;7538;53.626;9.906;2022-09-30T16:16:57;5.97;;;5.07;;
14892;SDS011;7538;53.626;9.906;2022-09-30T16:19:27;6.60;;;5.10;;
14892;SDS011;7538;53.626;9.906;2022-09-30T16:21:55;5.43;;;4.75;;
14892;SDS011;7538;53.626;9.906;2022-09-30T16:27:26;5.30;;;4.72;;
14892;SDS011;7538;53.626;9.906;2022-09-30T16:29:56;7.32;;;5.60;;
14892;SDS011;7538;53.626;9.906;2022-09-30T16:32:25;6.70;;;5.65;;
14892;SDS011;7538;53.626;9.906;2022-09-30T16:34:54;5.57;;;4.80;;
14892;SDS011;7538;53.626;9.906;2022-09-30T16:37:22;6.00;;;5.40;;
14892;SDS011;7538;53.626;9.906;2022-09-30T16:39:49;7.40;;;5.38;;
14892;SDS011;7538;53.626;9.906;2022-09-30T16:42:16;6.40;;;5.70;;
14892;SDS011;7538;53.626;9.906;2022-09-30T16:44:44;9.88;;;6.15;;
14892;SDS011;7538;53.626;9.906;2022-09-30T16:47:12;6.45;;;5.88;;
14892;SDS011;7538;53.626;9.906;2022-09-30T16:49:41;6.50;;;5.65;;
14892;SDS011;7538;53.626;9.906;2022-09-30T16:52:10;6.25;;;5.72;;
14892;SDS011;7538;53.626;9.906;2022-09-30T16:54:37;7.18;;;5.45;;
14892;SDS011;7538;53.626;9.906;2022-09-30T16:57:04;6.80;;;5.80;;
14892;SDS011;7538;53.626;9.906;2022-09-30T16:59:32;6.30;;;5.32;;
14892;SDS011;7538;53.626;9.906;2022-09-30T17:01:59;6.55;;;5.38;;
14892;SDS011;7538;53.626;9.906;2022-09-30T17:04:26;5.93;;;5.05;;
14892;SDS011;7538;53.626;9.906;2022-09-30T17:06:55;6.10;;;5.50;;
14892;SDS011;7538;53.626;9.906;2022-09-30T17:09:24;5.65;;;5.15;;
14892;SDS011;7538;53.626;9.906;2022-09-30T17:11:51;7.10;;;5.97;;
14892;SDS011;7538;53.626;9.906;2022-09-30T17:14:18;6.45;;;5.57;;
14892;SDS011;7538;53.626;9.906;2022-09-30T17:16:45;6.38;;;5.72;;
14892;SDS011;7538;53.626;9.906;2022-09-30T17:19:13;6.93;;;6.20;;
14892;SDS011;7538;53.626;9.906;2022-09-30T17:21:40;6.57;;;5.90;;
14892;SDS011;7538;53.626;9.906;2022-09-30T17:24:07;8.00;;;5.70;;
14892;SDS011;7538;53.626;9.906;2022-09-30T17:26:35;6.72;;;6.00;;
14892;SDS011;7538;53.626;9.906;2022-09-30T17:29:03;7.78;;;6.35;;
14892;SDS011;7538;53.626;9.906;2022-09-30T17:31:30;7.93;;;7.03;;
14892;SDS011;7538;53.626;9.906;2022-09-30T17:33:57;6.78;;;6.07;;
14892;SDS011;7538;53.626;9.906;2022-09-30T17:36:24;7.82;;;7.05;;
14892;SDS011;7538;53.626;9.906;2022-09-30T17:38:52;7.47;;;6.78;;
14892;SDS011;7538;53.626;9.906;2022-09-30T17:41:19;7.70;;;6.93;;
14892;SDS011;7538;53.626;9.906;2022-09-30T17:44:05;6.93;;;6.32;;
14892;SDS011;7538;53.626;9.906;2022-09-30T17:46:39;8.70;;;6.72;;
14892;SDS011;7538;53.626;9.906;2022-09-30T17:49:07;8.05;;;6.38;;
14892;SDS011;7538;53.626;9.906;2022-09-30T17:51:34;7.90;;;6.30;;
14892;SDS011;7538;53.626;9.906;2022-09-30T17:54:02;9.05;;;6.82;;
14892;SDS011;7538;53.626;9.906;2022-09-30T17:56:30;7.95;;;7.10;;
14892;SDS011;7538;53.626;9.906;2022-09-30T17:58:57;7.47;;;6.43;;
14892;SDS011;7538;53.626;9.906;2022-09-30T18:01:27;8.15;;;7.35;;
14892;SDS011;7538;53.626;9.906;2022-09-30T18:03:58;8.68;;;6.72;;
14892;SDS011;7538;53.626;9.906;2022-09-30T18:06:25;7.03;;;6.32;;
14892;SDS011;7538;53.626;9.906;2022-09-30T18:08:55;7.57;;;6.78;;
14892;SDS011;7538;53.626;9.906;2022-09-30T18:11:24;7.47;;;6.38;;
14892;SDS011;7538;53.626;9.906;2022-09-30T18:13:53;6.85;;;6.25;;
14892;SDS011;7538;53.626;9.906;2022-09-30T18:16:22;7.05;;;6.40;;
14892;SDS011;7538;53.626;9.906;2022-09-30T18:18:50;7.75;;;6.53;;
14892;SDS011;7538;53.626;9.906;2022-09-30T18:21:17;8.45;;;6.30;;
14892;SDS011;7538;53.626;9.906;2022-09-30T18:23:44;6.97;;;6.05;;
14892;SDS011;7538;53.626;9.906;2022-09-30T18:26:11;9.27;;;6.32;;
14892;SDS011;7538;53.626;9.906;2022-09-30T18:28:38;10.40;;;6.70;;
14892;SDS011;7538;53.626;9.906;2022-09-30T18:31:07;8.15;;;6.70;;
14892;SDS011;7538;53.626;9.906;2022-09-30T18:33:35;8.57;;;6.28;;
14892;SDS011;7538;53.626;9.906;2022-09-30T18:36:04;6.47;;;5.88;;
14892;SDS011;7538;53.626;9.906;2022-09-30T18:38:31;9.10;;;6.20;;
14892;SDS011;7538;53.626;9.906;2022-09-30T18:40:58;6.68;;;5.97;;
14892;SDS011;7538;53.626;9.906;2022-09-30T18:43:26;7.70;;;6.93;;
14892;SDS011;7538;53.626;9.906;2022-09-30T18:45:54;9.13;;;6.78;;
14892;SDS011;7538;53.626;9.906;2022-09-30T18:48:22;7.13;;;6.43;;
14892;SDS011;7538;53.626;9.906;2022-09-30T18:50:50;8.07;;;6.30;;
14892;SDS011;7538;53.626;9.906;2022-09-30T18:53:19;6.80;;;6.07;;
14892;SDS011;7538;53.626;9.906;2022-09-30T18:55:47;9.50;;;7.05;;
14892;SDS011;7538;53.626;9.906;2022-09-30T18:58:14;8.55;;;7.22;;
14892;SDS011;7538;53.626;9.906;2022-09-30T19:00:41;7.65;;;6.65;;
14892;SDS011;7538;53.626;9.906;2022-09-30T19:03:09;9.02;;;7.18;;
14892;SDS011;7538;53.626;9.906;2022-09-30T19:05:40;8.48;;;6.75;;
14892;SDS011;7538;53.626;9.906;2022-09-30T19:08:07;6.22;;;5.47;;
14892;SDS011;7538;53.626;9.906;2022-09-30T19:10:38;7.57;;;6.65;;
14892;SDS011;7538;53.626;9.906;2022-09-30T19:13:06;7.07;;;6.38;;
14892;SDS011;7538;53.626;9.906;2022-09-30T19:15:35;7.25;;;6.43;;
14892;SDS011;7538;53.626;9.906;2022-09-30T19:18:02;7.93;;;6.32;;
14892;SDS011;7538;53.626;9.906;2022-09-30T19:20:30;6.97;;;6.38;;
14892;SDS011;7538;53.626;9.906;2022-09-30T19:22:58;7.47;;;6.40;;
14892;SDS011;7538;53.626;9.906;2022-09-30T19:25:25;7.00;;;6.03;;
14892;SDS011;7538;53.626;9.906;2022-09-30T19:27:54;10.05;;;6.75;;
14892;SDS011;7538;53.626;9.906;2022-09-30T19:30:21;6.85;;;6.15;;
14892;SDS011;7538;53.626;9.906;2022-09-30T19:32:52;6.57;;;6.05;;
14892;SDS011;7538;53.626;9.906;2022-09-30T19:35:23;6.47;;;5.88;;
14892;SDS011;7538;53.626;9.906;2022-09-30T19:37:50;8.88;;;6.53;;
14892;SDS011;7538;53.626;9.906;2022-09-30T19:40:20;7.13;;;5.45;;
14892;SDS011;7538;53.626;9.906;2022-09-30T19:42:47;6.28;;;5.68;;
14892;SDS011;7538;53.626;9.906;2022-09-30T19:45:15;6.65;;;6.05;;
14892;SDS011;7538;53.626;9.906;2022-09-30T19:47:45;7.53;;;6.30;;
14892;SDS011;7538;53.626;9.906;2022-09-30T19:50:12;8.55;;;6.38;;
14892;SDS011;7538;53.626;9.906;2022-09-30T19:52:39;8.13;;;6.57;;
14892;SDS011;7538;53.626;9.906;2022-09-30T19:55:07;7.15;;;6.10;;
14892;SDS011;7538;53.626;9.906;2022-09-30T19:57:34;8.52;;;6.38;;